sensor_id;sensor_type;location;lat;lon;timestamp;pressure;altitude;pressure_sealevel;temperature;humidity
23363;BME280;11853;48.080;11.960;2023-04-26T00:01:47;94695.75;;;7.70;100.00
23363;BME280;11853;48.080;11.960;2023-04-26T00:04:12;94699.63;;;7.66;100.00
23363;BME280;11853;48.080;11.960;2023-04-26T00:06:38;94696.16;;;7.65;100.00
23363;BME280;11853;48.080;11.960;2023-04-26T00:09:03;94701.72;;;7.62;100.00
23363;BME280;11853;48.080;11.960;2023-04-26T00:11:29;94695.03;;;7.68;100.00
23363;BME280;11853;48.080;11.960;2023-04-26T00:13:57;94692.41;;;7.68;100.00
23363;BME280;11853;48.080;11.960;2023-04-26T00:16:22;94682.69;;;7.59;100.00
23363;BME280;11853;48.080;11.960;2023-04-26T00:18:48;94697.97;;;7.65;100.00
23363;BME280;11853;48.080;11.960;2023-04-26T00:21:14;94687.69;;;7.62;100.00
23363;BME280;11853;48.080;11.960;2023-04-26T00:23:39;94684.06;;;7.63;100.00
23363;BME280;11853;48.080;11.960;2023-04-26T00:26:06;94686.84;;;7.61;100.00
23363;BME280;11853;48.080;11.960;2023-04-26T00:28:32;94683.94;;;7.64;100.00
23363;BME280;11853;48.080;11.960;2023-04-26T00:30:57;94690.44;;;7.60;100.00
23363;BME280;11853;48.080;11.960;2023-04-26T00:33:23;94686.00;;;7.61;100.00
23363;BME280;11853;48.080;11.960;2023-04-26T00:35:49;94689.06;;;7.66;100.00
23363;BME280;11853;48.080;11.960;2023-04-26T00:38:14;94691.69;;;7.66;100.00
23363;BME280;11853;48.080;11.960;2023-04-26T00:40:40;94685.47;;;7.67;100.00
23363;BME280;11853;48.080;11.960;2023-04-26T00:43:06;94690.19;;;7.73;100.00
23363;BME280;11853;48.080;11.960;2023-04-26T00:45:31;94681.84;;;7.68;100.00
23363;BME280;11853;48.080;11.960;2023-04-26T00:47:58;94687.41;;;7.65;100.00
23363;BME280;11853;48.080;11.960;2023-04-26T00:50:25;94689.06;;;7.66;100.00
23363;BME280;11853;48.080;11.960;2023-04-26T00:52:51;94686.41;;;7.66;100.00
23363;BME280;11853;48.080;11.960;2023-04-26T00:55:18;94687.94;;;7.68;100.00
23363;BME280;11853;48.080;11.960;2023-04-26T00:57:46;94694.22;;;7.67;100.00
23363;BME280;11853;48.080;11.960;2023-04-26T01:00:12;94696.03;;;7.67;100.00
23363;BME280;11853;48.080;11.960;2023-04-26T01:02:38;94693.50;;;7.65;100.00
23363;BME280;11853;48.080;11.960;2023-04-26T01:05:04;94693.78;;;7.72;100.00
23363;BME280;11853;48.080;11.960;2023-04-26T01:07:30;94698.09;;;7.73;100.00
23363;BME280;11853;48.080;11.960;2023-04-26T01:09:57;94701.41;;;7.75;100.00
23363;BME280;11853;48.080;11.960;2023-04-26T01:12:23;94697.41;;;7.71;100.00
23363;BME280;11853;48.080;11.960;2023-04-26T01:14:50;94696.03;;;7.67;100.00
23363;BME280;11853;48.080;11.960;2023-04-26T01:17:15;94702.97;;;7.68;100.00
23363;BME280;11853;48.080;11.960;2023-04-26T01:19:48;94703.66;;;7.70;100.00
23363;BME280;11853;48.080;11.960;2023-04-26T01:22:13;94700.16;;;7.70;100.00
23363;BME280;11853;48.080;11.960;2023-04-26T01:24:41;94693.63;;;7.64;100.00
23363;BME280;11853;48.080;11.960;2023-04-26T01:27:07;94699.63;;;7.66;100.00
23363;BME280;11853;48.080;11.960;2023-04-26T01:29:33;94693.91;;;7.61;100.00
23363;BME280;11853;48.080;11.960;2023-04-26T01:31:59;94699.63;;;7.66;100.00
23363;BME280;11853;48.080;11.960;2023-04-26T01:34:25;94705.59;;;7.68;100.00
23363;BME280;11853;48.080;11.960;2023-04-26T01:36:50;94695.75;;;7.70;100.00
23363;BME280;11853;48.080;11.960;2023-04-26T01:39:16;94697.41;;;7.61;100.00
23363;BME280;11853;48.080;11.960;2023-04-26T01:41:42;94704.91;;;7.56;100.00
23363;BME280;11853;48.080;11.960;2023-04-26T01:44:07;94709.09;;;7.59;100.00
23363;BME280;11853;48.080;11.960;2023-04-26T01:46:33;94707.41;;;7.58;100.00
23363;BME280;11853;48.080;11.960;2023-04-26T01:48:58;94700.34;;;7.58;100.00
23363;BME280;11853;48.080;11.960;2023-04-26T01:51:24;94702.00;;;7.59;100.00
23363;BME280;11853;48.080;11.960;2023-04-26T01:53:50;94710.75;;;7.60;100.00
23363;BME280;11853;48.080;11.960;2023-04-26T01:56:15;94711.56;;;7.60;100.00
23363;BME280;11853;48.080;11.960;2023-04-26T01:58:42;94716.03;;;7.60;100.00
23363;BME280;11853;48.080;11.960;2023-04-26T02:01:08;94716.03;;;7.60;100.00
23363;BME280;11853;48.080;11.960;2023-04-26T02:03:34;94709.09;;;7.59;100.00
23363;BME280;11853;48.080;11.960;2023-04-26T02:06:00;94713.53;;;7.58;100.00
23363;BME280;11853;48.080;11.960;2023-04-26T02:08:26;94710.03;;;7.58;100.00
23363;BME280;11853;48.080;11.960;2023-04-26T02:10:51;94711.28;;;7.63;100.00
23363;BME280;11853;48.080;11.960;2023-04-26T02:13:17;94708.25;;;7.58;100.00
23363;BME280;11853;48.080;11.960;2023-04-26T02:15:48;94706.56;;;7.57;100.00
23363;BME280;11853;48.080;11.960;2023-04-26T02:18:14;94709.75;;;7.61;100.00
23363;BME280;11853;48.080;11.960;2023-04-26T02:20:43;94714.91;;;7.62;100.00
23363;BME280;11853;48.080;11.960;2023-04-26T02:23:10;94720.31;;;7.61;100.00
23363;BME280;11853;48.080;11.960;2023-04-26T02:25:36;94724.91;;;7.59;100.00
23363;BME280;11853;48.080;11.960;2023-04-26T02:28:02;94716.28;;;7.57;100.00
23363;BME280;11853;48.080;11.960;2023-04-26T02:30:28;94711.56;;;7.51;100.00
23363;BME280;11853;48.080;11.960;2023-04-26T02:32:54;94713.94;;;7.54;100.00
23363;BME280;11853;48.080;11.960;2023-04-26T02:35:20;94709.34;;;7.56;100.00
23363;BME280;11853;48.080;11.960;2023-04-26T02:37:46;94712.13;;;7.54;100.00
23363;BME280;11853;48.080;11.960;2023-04-26T02:40:14;94712.94;;;7.55;100.00
23363;BME280;11853;48.080;11.960;2023-04-26T02:42:40;94705.59;;;7.49;100.00
23363;BME280;11853;48.080;11.960;2023-04-26T02:45:06;94716.16;;;7.49;100.00
23363;BME280;11853;48.080;11.960;2023-04-26T02:47:32;94717.69;;;7.51;100.00
23363;BME280;11853;48.080;11.960;2023-04-26T02:50:04;94711.97;;;7.46;100.00
23363;BME280;11853;48.080;11.960;2023-04-26T02:52:30;94705.88;;;7.45;100.00
23363;BME280;11853;48.080;11.960;2023-04-26T02:54:55;94709.06;;;7.39;100.00
23363;BME280;11853;48.080;11.960;2023-04-26T02:57:21;94702.94;;;7.39;100.00
23363;BME280;11853;48.080;11.960;2023-04-26T02:59:46;94707.78;;;7.43;100.00
23363;BME280;11853;48.080;11.960;2023-04-26T03:02:12;94705.59;;;7.39;100.00
23363;BME280;11853;48.080;11.960;2023-04-26T03:04:38;94704.06;;;7.36;100.00
23363;BME280;11853;48.080;11.960;2023-04-26T03:07:04;94703.22;;;7.36;100.00
23363;BME280;11853;48.080;11.960;2023-04-26T03:09:30;94713.19;;;7.32;100.00
23363;BME280;11853;48.080;11.960;2023-04-26T03:11:55;94713.47;;;7.29;100.00
23363;BME280;11853;48.080;11.960;2023-04-26T03:17:43;94713.75;;;7.26;100.00
23363;BME280;11853;48.080;11.960;2023-04-26T03:20:08;94716.94;;;7.20;100.00
23363;BME280;11853;48.080;11.960;2023-04-26T03:22:35;94720.66;;;7.17;100.00
23363;BME280;11853;48.080;11.960;2023-04-26T03:25:00;94719.00;;;7.16;100.00
23363;BME280;11853;48.080;11.960;2023-04-26T03:27:28;94709.44;;;7.15;100.00
23363;BME280;11853;48.080;11.960;2023-04-26T03:33:15;94720.94;;;7.14;100.00
23363;BME280;11853;48.080;11.960;2023-04-26T03:35:42;94728.41;;;7.09;100.00
23363;BME280;11853;48.080;11.960;2023-04-26T03:38:07;94727.59;;;7.09;100.00
23363;BME280;11853;48.080;11.960;2023-04-26T03:40:33;94727.03;;;7.15;100.00
23363;BME280;11853;48.080;11.960;2023-04-26T03:42:58;94724.41;;;7.15;100.00
23363;BME280;11853;48.080;11.960;2023-04-26T03:45:24;94730.38;;;7.17;100.00
23363;BME280;11853;48.080;11.960;2023-04-26T03:47:51;94729.00;;;7.13;100.00
23363;BME280;11853;48.080;11.960;2023-04-26T03:50:16;94734.66;;;7.08;100.00
23363;BME280;11853;48.080;11.960;2023-04-26T03:52:42;94731.22;;;7.08;100.00
23363;BME280;11853;48.080;11.960;2023-04-26T03:55:07;94738.03;;;7.10;100.00
23363;BME280;11853;48.080;11.960;2023-04-26T03:57:34;94735.06;;;7.04;100.00
23363;BME280;11853;48.080;11.960;2023-04-26T04:00:00;94733.41;;;7.03;100.00
23363;BME280;11853;48.080;11.960;2023-04-26T04:02:26;94735.47;;;6.99;100.00
23363;BME280;11853;48.080;11.960;2023-04-26T04:04:51;94736.03;;;7.03;100.00
23363;BME280;11853;48.080;11.960;2023-04-26T04:07:17;94739.66;;;7.02;100.00
23363;BME280;11853;48.080;11.960;2023-04-26T04:09:43;94736.69;;;6.95;100.00
23363;BME280;11853;48.080;11.960;2023-04-26T04:12:08;94729.78;;;6.94;100.00
23363;BME280;11853;48.080;11.960;2023-04-26T04:14:34;94734.22;;;6.93;100.00
23363;BME280;11853;48.080;11.960;2023-04-26T04:17:00;94743.06;;;6.92;100.00
23363;BME280;11853;48.080;11.960;2023-04-26T04:19:25;94735.59;;;6.88;100.00
23363;BME280;11853;48.080;11.960;2023-04-26T04:21:51;94738.94;;;6.90;100.00
23363;BME280;11853;48.080;11.960;2023-04-26T04:24:17;94742.41;;;6.90;100.00
23363;BME280;11853;48.080;11.960;2023-04-26T04:26:44;94746.41;;;6.94;100.00
23363;BME280;11853;48.080;11.960;2023-04-26T04:29:09;94747.34;;;6.84;100.00
23363;BME280;11853;48.080;11.960;2023-04-26T04:31:35;94752.50;;;6.85;100.00
23363;BME280;11853;48.080;11.960;2023-04-26T04:34:01;94755.00;;;6.87;100.00
23363;BME280;11853;48.080;11.960;2023-04-26T04:36:26;94754.03;;;6.88;100.00
23363;BME280;11853;48.080;11.960;2023-04-26T04:38:52;94751.09;;;6.81;100.00
23363;BME280;11853;48.080;11.960;2023-04-26T04:41:18;94765.16;;;6.91;100.00
23363;BME280;11853;48.080;11.960;2023-04-26T04:43:46;94768.31;;;6.85;100.00
23363;BME280;11853;48.080;11.960;2023-04-26T04:46:12;94768.31;;;6.85;100.00
23363;BME280;11853;48.080;11.960;2023-04-26T04:48:37;94762.66;;;6.90;100.00
23363;BME280;11853;48.080;11.960;2023-04-26T04:51:03;94758.75;;;6.84;100.00
23363;BME280;11853;48.080;11.960;2023-04-26T04:53:29;94764.97;;;6.83;100.00
23363;BME280;11853;48.080;11.960;2023-04-26T04:55:54;94774.31;;;6.87;100.00
23363;BME280;11853;48.080;11.960;2023-04-26T04:58:21;94776.84;;;6.98;100.00
23363;BME280;11853;48.080;11.960;2023-04-26T05:00:47;94774.47;;;6.95;100.00
23363;BME280;11853;48.080;11.960;2023-04-26T05:03:13;94771.13;;;6.93;100.00
23363;BME280;11853;48.080;11.960;2023-04-26T05:05:39;94773.78;;;6.93;100.00
23363;BME280;11853;48.080;11.960;2023-04-26T05:08:05;94780.25;;;6.89;100.00
23363;BME280;11853;48.080;11.960;2023-04-26T05:10:33;94772.06;;;6.92;100.00
23363;BME280;11853;48.080;11.960;2023-04-26T05:13:00;94785.97;;;6.94;100.00
23363;BME280;11853;48.080;11.960;2023-04-26T05:15:26;94780.25;;;6.89;100.00
23363;BME280;11853;48.080;11.960;2023-04-26T05:17:51;94789.72;;;6.92;100.00
23363;BME280;11853;48.080;11.960;2023-04-26T05:20:17;94794.44;;;6.98;100.00
23363;BME280;11853;48.080;11.960;2023-04-26T05:22:42;94793.09;;;7.04;100.00
23363;BME280;11853;48.080;11.960;2023-04-26T05:25:08;94803.63;;;7.04;100.00
23363;BME280;11853;48.080;11.960;2023-04-26T05:27:35;94801.00;;;7.04;100.00
23363;BME280;11853;48.080;11.960;2023-04-26T05:30:03;94801.59;;;7.07;100.00
23363;BME280;11853;48.080;11.960;2023-04-26T05:32:29;94801.97;;;7.03;100.00
23363;BME280;11853;48.080;11.960;2023-04-26T05:35:36;94810.59;;;7.05;100.00
23363;BME280;11853;48.080;11.960;2023-04-26T05:38:49;94807.88;;;7.16;100.00
23363;BME280;11853;48.080;11.960;2023-04-26T05:44:32;94806.69;;;7.30;100.00
23363;BME280;11853;48.080;11.960;2023-04-26T05:47:00;94812.09;;;7.38;100.00
23363;BME280;11853;48.080;11.960;2023-04-26T05:49:26;94813.91;;;7.37;100.00
23363;BME280;11853;48.080;11.960;2023-04-26T05:51:52;94815.00;;;7.35;100.00
23363;BME280;11853;48.080;11.960;2023-04-26T05:54:17;94814.44;;;7.31;100.00
23363;BME280;11853;48.080;11.960;2023-04-26T05:56:43;94813.19;;;7.35;100.00
23363;BME280;11853;48.080;11.960;2023-04-26T05:59:09;94811.59;;;7.44;100.00
23363;BME280;11853;48.080;11.960;2023-04-26T06:01:36;94812.03;;;7.59;100.00
23363;BME280;11853;48.080;11.960;2023-04-26T06:04:02;94815.06;;;7.64;100.00
23363;BME280;11853;48.080;11.960;2023-04-26T06:06:27;94814.25;;;7.63;100.00
23363;BME280;11853;48.080;11.960;2023-04-26T06:08:53;94811.06;;;7.70;100.00
23363;BME280;11853;48.080;11.960;2023-04-26T06:11:19;94824.56;;;7.76;100.00
23363;BME280;11853;48.080;11.960;2023-04-26T06:13:45;94818.13;;;8.39;100.00
23363;BME280;11853;48.080;11.960;2023-04-26T06:16:11;94834.16;;;8.94;100.00
23363;BME280;11853;48.080;11.960;2023-04-26T06:18:37;94822.88;;;9.39;100.00
23363;BME280;11853;48.080;11.960;2023-04-26T06:21:04;94831.34;;;9.05;100.00
23363;BME280;11853;48.080;11.960;2023-04-26T06:23:30;94834.50;;;8.71;100.00
23363;BME280;11853;48.080;11.960;2023-04-26T06:25:55;94835.78;;;8.48;100.00
23363;BME280;11853;48.080;11.960;2023-04-26T06:28:21;94833.81;;;8.30;100.00
23363;BME280;11853;48.080;11.960;2023-04-26T06:30:47;94833.78;;;8.21;100.00
23363;BME280;11853;48.080;11.960;2023-04-26T06:33:12;94845.63;;;8.07;100.00
23363;BME280;11853;48.080;11.960;2023-04-26T06:35:39;94838.78;;;7.95;100.00
23363;BME280;11853;48.080;11.960;2023-04-26T06:38:05;94845.84;;;7.84;100.00
23363;BME280;11853;48.080;11.960;2023-04-26T06:40:31;94846.13;;;7.81;100.00
23363;BME280;11853;48.080;11.960;2023-04-26T06:42:57;94848.06;;;7.79;100.00
23363;BME280;11853;48.080;11.960;2023-04-26T06:45:23;94845.25;;;7.71;100.00
23363;BME280;11853;48.080;11.960;2023-04-26T06:47:52;94848.19;;;7.68;100.00
23363;BME280;11853;48.080;11.960;2023-04-26T06:50:18;94850.00;;;7.67;100.00
23363;BME280;11853;48.080;11.960;2023-04-26T06:52:44;94847.47;;;7.66;100.00
23363;BME280;11853;48.080;11.960;2023-04-26T06:55:09;94842.59;;;7.61;100.00
23363;BME280;11853;48.080;11.960;2023-04-26T06:57:35;94850.38;;;7.63;100.00
23363;BME280;11853;48.080;11.960;2023-04-26T07:00:02;94847.19;;;7.69;100.00
23363;BME280;11853;48.080;11.960;2023-04-26T07:02:28;94852.75;;;7.66;100.00
23363;BME280;11853;48.080;11.960;2023-04-26T07:04:54;94847.75;;;7.63;100.00
23363;BME280;11853;48.080;11.960;2023-04-26T07:07:20;94854.16;;;7.70;100.00
23363;BME280;11853;48.080;11.960;2023-04-26T07:09:46;94844.44;;;7.80;100.00
23363;BME280;11853;48.080;11.960;2023-04-26T07:12:12;94859.19;;;7.83;100.00
23363;BME280;11853;48.080;11.960;2023-04-26T07:14:38;94845.16;;;7.82;100.00
23363;BME280;11853;48.080;11.960;2023-04-26T07:17:06;94839.88;;;7.82;100.00
23363;BME280;11853;48.080;11.960;2023-04-26T07:19:32;94850.28;;;7.84;100.00
23363;BME280;11853;48.080;11.960;2023-04-26T07:21:57;94840.84;;;7.81;100.00
23363;BME280;11853;48.080;11.960;2023-04-26T07:24:23;94848.66;;;7.93;100.00
23363;BME280;11853;48.080;11.960;2023-04-26T07:26:49;94838.66;;;7.96;100.00
23363;BME280;11853;48.080;11.960;2023-04-26T07:29:14;94843.09;;;8.05;100.00
23363;BME280;11853;48.080;11.960;2023-04-26T07:31:40;94846.16;;;8.10;100.00
23363;BME280;11853;48.080;11.960;2023-04-26T07:34:06;94845.34;;;8.10;100.00
23363;BME280;11853;48.080;11.960;2023-04-26T07:36:31;94847.00;;;8.11;100.00
23363;BME280;11853;48.080;11.960;2023-04-26T07:38:57;94843.69;;;8.19;100.00
23363;BME280;11853;48.080;11.960;2023-04-26T07:41:23;94844.78;;;8.26;100.00
23363;BME280;11853;48.080;11.960;2023-04-26T07:43:48;94842.00;;;8.47;100.00
23363;BME280;11853;48.080;11.960;2023-04-26T07:46:14;94850.38;;;8.62;100.00
23363;BME280;11853;48.080;11.960;2023-04-26T07:48:40;94852.47;;;8.68;100.00
23363;BME280;11853;48.080;11.960;2023-04-26T07:51:09;94843.25;;;8.72;100.00
23363;BME280;11853;48.080;11.960;2023-04-26T07:53:35;94854.94;;;8.69;100.00
23363;BME280;11853;48.080;11.960;2023-04-26T07:56:04;94858.72;;;8.76;100.00
23363;BME280;11853;48.080;11.960;2023-04-26T07:58:30;94856.34;;;8.73;100.00
23363;BME280;11853;48.080;11.960;2023-04-26T08:00:57;94849.25;;;8.74;100.00
23363;BME280;11853;48.080;11.960;2023-04-26T08:03:23;94857.72;;;8.77;100.00
23363;BME280;11853;48.080;11.960;2023-04-26T08:05:49;94854.50;;;8.84;100.00
23363;BME280;11853;48.080;11.960;2023-04-26T08:08:15;94855.47;;;9.02;100.00
23363;BME280;11853;48.080;11.960;2023-04-26T08:10:41;94859.56;;;9.24;100.00
23363;BME280;11853;48.080;11.960;2023-04-26T08:13:07;94852.97;;;9.38;100.00
23363;BME280;11853;48.080;11.960;2023-04-26T08:15:33;94850.41;;;9.56;100.00
23363;BME280;11853;48.080;11.960;2023-04-26T08:17:58;94848.84;;;9.81;100.00
23363;BME280;11853;48.080;11.960;2023-04-26T08:20:24;94844.28;;;10.19;97.79
23363;BME280;11853;48.080;11.960;2023-04-26T08:22:54;94841.47;;;10.48;96.27
23363;BME280;11853;48.080;11.960;2023-04-26T08:25:21;94847.75;;;10.65;92.08
23363;BME280;11853;48.080;11.960;2023-04-26T08:27:47;94843.91;;;10.59;85.81
23363;BME280;11853;48.080;11.960;2023-04-26T08:30:13;94848.94;;;10.52;88.02
23363;BME280;11853;48.080;11.960;2023-04-26T08:32:38;94841.66;;;10.90;91.02
23363;BME280;11853;48.080;11.960;2023-04-26T08:35:05;94844.50;;;11.23;90.71
23363;BME280;11853;48.080;11.960;2023-04-26T08:37:31;94845.53;;;11.56;87.93
23363;BME280;11853;48.080;11.960;2023-04-26T08:39:57;94846.38;;;11.91;83.52
23363;BME280;11853;48.080;11.960;2023-04-26T08:42:27;94847.50;;;11.88;82.31
23363;BME280;11853;48.080;11.960;2023-04-26T08:44:53;94843.13;;;11.79;83.42
23363;BME280;11853;48.080;11.960;2023-04-26T08:47:28;94834.41;;;11.61;80.64
23363;BME280;11853;48.080;11.960;2023-04-26T08:49:57;94835.16;;;11.79;82.49
23363;BME280;11853;48.080;11.960;2023-04-26T08:52:29;94840.75;;;12.02;82.12
23363;BME280;11853;48.080;11.960;2023-04-26T08:54:59;94841.16;;;12.40;80.99
23363;BME280;11853;48.080;11.960;2023-04-26T08:57:25;94833.69;;;12.52;79.59
23363;BME280;11853;48.080;11.960;2023-04-26T08:59:51;94833.38;;;12.55;78.95
23363;BME280;11853;48.080;11.960;2023-04-26T09:02:19;94832.69;;;12.69;81.39
23363;BME280;11853;48.080;11.960;2023-04-26T09:04:45;94828.03;;;12.88;77.60
23363;BME280;11853;48.080;11.960;2023-04-26T09:07:26;94825.53;;;12.70;76.97
23363;BME280;11853;48.080;11.960;2023-04-26T09:09:57;94827.06;;;12.48;75.06
23363;BME280;11853;48.080;11.960;2023-04-26T09:12:24;94826.00;;;12.24;74.40
23363;BME280;11853;48.080;11.960;2023-04-26T09:14:50;94827.16;;;12.22;75.58
23363;BME280;11853;48.080;11.960;2023-04-26T09:17:31;94831.81;;;12.11;73.91
23363;BME280;11853;48.080;11.960;2023-04-26T09:19:58;94826.75;;;11.92;74.57
23363;BME280;11853;48.080;11.960;2023-04-26T09:22:31;94825.16;;;12.15;75.18
23363;BME280;11853;48.080;11.960;2023-04-26T09:24:58;94825.56;;;12.53;77.23
23363;BME280;11853;48.080;11.960;2023-04-26T09:27:36;94822.41;;;12.91;75.45
23363;BME280;11853;48.080;11.960;2023-04-26T09:32:43;94810.66;;;13.49;65.31
23363;BME280;11853;48.080;11.960;2023-04-26T09:35:24;94810.75;;;13.64;65.05
23363;BME280;11853;48.080;11.960;2023-04-26T09:37:57;94818.53;;;13.34;63.63
23363;BME280;11853;48.080;11.960;2023-04-26T09:40:34;94820.66;;;13.39;69.23
23363;BME280;11853;48.080;11.960;2023-04-26T09:43:06;94819.34;;;13.43;68.06
23363;BME280;11853;48.080;11.960;2023-04-26T09:45:49;94813.69;;;13.13;66.79
23363;BME280;11853;48.080;11.960;2023-04-26T09:50:43;94819.53;;;13.25;69.10
23363;BME280;11853;48.080;11.960;2023-04-26T09:53:23;94816.34;;;13.21;67.64
23363;BME280;11853;48.080;11.960;2023-04-26T09:55:50;94813.69;;;13.29;67.23
23363;BME280;11853;48.080;11.960;2023-04-26T09:58:15;94805.03;;;13.19;67.25
23363;BME280;11853;48.080;11.960;2023-04-26T10:00:41;94809.22;;;13.05;70.99
23363;BME280;11853;48.080;11.960;2023-04-26T10:03:08;94814.72;;;12.88;71.41
23363;BME280;11853;48.080;11.960;2023-04-26T10:05:35;94819.06;;;12.72;71.97
23363;BME280;11853;48.080;11.960;2023-04-26T10:08:02;94817.72;;;12.44;69.67
23363;BME280;11853;48.080;11.960;2023-04-26T10:10:29;94811.69;;;12.17;69.95
23363;BME280;11853;48.080;11.960;2023-04-26T10:12:56;94816.63;;;11.95;71.25
23363;BME280;11853;48.080;11.960;2023-04-26T10:15:21;94820.41;;;11.85;72.91
23363;BME280;11853;48.080;11.960;2023-04-26T10:17:47;94818.03;;;11.73;73.32
23363;BME280;11853;48.080;11.960;2023-04-26T10:20:13;94823.50;;;11.72;73.94
23363;BME280;11853;48.080;11.960;2023-04-26T10:22:45;94819.50;;;11.68;74.99
23363;BME280;11853;48.080;11.960;2023-04-26T10:25:14;94822.13;;;11.60;75.34
23363;BME280;11853;48.080;11.960;2023-04-26T10:30:21;94808.81;;;11.52;75.19
23363;BME280;11853;48.080;11.960;2023-04-26T10:35:28;94806.88;;;11.70;76.12
23363;BME280;11853;48.080;11.960;2023-04-26T10:40:41;94804.72;;;12.08;75.52
23363;BME280;11853;48.080;11.960;2023-04-26T10:45:44;94794.09;;;12.49;74.47
23363;BME280;11853;48.080;11.960;2023-04-26T10:48:19;94788.13;;;12.71;73.93
23363;BME280;11853;48.080;11.960;2023-04-26T10:53:56;94786.41;;;13.11;73.52
23363;BME280;11853;48.080;11.960;2023-04-26T10:58:48;94777.94;;;12.99;68.99
23363;BME280;11853;48.080;11.960;2023-04-26T11:01:15;94788.94;;;12.80;66.23
23363;BME280;11853;48.080;11.960;2023-04-26T11:03:43;94787.44;;;12.69;65.92
23363;BME280;11853;48.080;11.960;2023-04-26T11:06:29;94783.47;;;12.57;66.95
23363;BME280;11853;48.080;11.960;2023-04-26T11:09:37;94778.13;;;12.40;66.40
23363;BME280;11853;48.080;11.960;2023-04-26T11:12:10;94775.31;;;12.34;67.73
23363;BME280;11853;48.080;11.960;2023-04-26T11:14:37;94777.16;;;12.33;68.53
23363;BME280;11853;48.080;11.960;2023-04-26T11:17:06;94768.16;;;12.34;68.48
23363;BME280;11853;48.080;11.960;2023-04-26T11:19:33;94765.00;;;12.47;67.95
23363;BME280;11853;48.080;11.960;2023-04-26T11:21:59;94765.16;;;12.70;70.59
23363;BME280;11853;48.080;11.960;2023-04-26T11:24:32;94751.16;;;12.93;71.25
23363;BME280;11853;48.080;11.960;2023-04-26T11:26:58;94757.47;;;13.00;69.54
23363;BME280;11853;48.080;11.960;2023-04-26T11:29:24;94753.78;;;13.09;68.20
23363;BME280;11853;48.080;11.960;2023-04-26T11:31:56;94753.56;;;13.19;67.45
23363;BME280;11853;48.080;11.960;2023-04-26T11:36:50;94737.59;;;13.27;65.41
23363;BME280;11853;48.080;11.960;2023-04-26T11:39:15;94745.91;;;13.24;62.83
23363;BME280;11853;48.080;11.960;2023-04-26T11:41:41;94738.94;;;13.23;63.75
23363;BME280;11853;48.080;11.960;2023-04-26T11:44:10;94741.44;;;13.16;64.11
23363;BME280;11853;48.080;11.960;2023-04-26T11:46:35;94739.97;;;13.14;64.75
23363;BME280;11853;48.080;11.960;2023-04-26T11:49:01;94745.09;;;13.15;66.53
23363;BME280;11853;48.080;11.960;2023-04-26T11:51:27;94748.59;;;13.16;64.50
23363;BME280;11853;48.080;11.960;2023-04-26T11:53:54;94744.13;;;13.16;64.00
23363;BME280;11853;48.080;11.960;2023-04-26T11:56:20;94744.91;;;13.25;62.52
23363;BME280;11853;48.080;11.960;2023-04-26T11:58:51;94737.03;;;13.48;64.01
23363;BME280;11853;48.080;11.960;2023-04-26T12:03:52;94740.97;;;13.60;59.52
23363;BME280;11853;48.080;11.960;2023-04-26T12:06:19;94737.59;;;13.66;61.08
23363;BME280;11853;48.080;11.960;2023-04-26T12:08:49;94739.13;;;13.61;57.44
23363;BME280;11853;48.080;11.960;2023-04-26T12:11:16;94744.16;;;13.56;57.22
23363;BME280;11853;48.080;11.960;2023-04-26T12:13:42;94740.84;;;13.54;58.02
23363;BME280;11853;48.080;11.960;2023-04-26T12:16:08;94736.03;;;13.49;56.64
23363;BME280;11853;48.080;11.960;2023-04-26T12:18:34;94734.75;;;13.37;56.72
23363;BME280;11853;48.080;11.960;2023-04-26T12:21:00;94738.75;;;13.33;58.47
23363;BME280;11853;48.080;11.960;2023-04-26T12:23:26;94733.09;;;13.27;56.86
23363;BME280;11853;48.080;11.960;2023-04-26T12:25:54;94745.44;;;13.20;58.48
23363;BME280;11853;48.080;11.960;2023-04-26T12:28:20;94745.44;;;13.20;62.22
23363;BME280;11853;48.080;11.960;2023-04-26T12:30:46;94754.72;;;13.24;65.03
23363;BME280;11853;48.080;11.960;2023-04-26T12:33:12;94743.09;;;13.34;63.02
23363;BME280;11853;48.080;11.960;2023-04-26T12:35:38;94740.88;;;13.45;62.87
23363;BME280;11853;48.080;11.960;2023-04-26T12:38:04;94742.31;;;13.56;68.15
23363;BME280;11853;48.080;11.960;2023-04-26T12:40:30;94746.47;;;13.59;63.73
23363;BME280;11853;48.080;11.960;2023-04-26T12:42:56;94742.66;;;13.53;65.15
23363;BME280;11853;48.080;11.960;2023-04-26T12:45:23;94744.00;;;13.57;62.68
23363;BME280;11853;48.080;11.960;2023-04-26T12:47:50;94739.47;;;13.58;64.35
23363;BME280;11853;48.080;11.960;2023-04-26T12:50:16;94740.97;;;13.60;64.97
23363;BME280;11853;48.080;11.960;2023-04-26T12:52:43;94743.09;;;13.65;62.90
23363;BME280;11853;48.080;11.960;2023-04-26T12:55:10;94735.97;;;13.65;62.29
23363;BME280;11853;48.080;11.960;2023-04-26T12:57:37;94730.97;;;13.62;61.41
23363;BME280;11853;48.080;11.960;2023-04-26T13:00:04;94736.44;;;13.69;60.89
23363;BME280;11853;48.080;11.960;2023-04-26T13:02:30;94716.91;;;13.77;60.69
23363;BME280;11853;48.080;11.960;2023-04-26T13:04:57;94723.88;;;13.78;62.30
23363;BME280;11853;48.080;11.960;2023-04-26T13:07:23;94731.91;;;13.69;61.94
23363;BME280;11853;48.080;11.960;2023-04-26T13:09:48;94723.84;;;13.55;62.52
23363;BME280;11853;48.080;11.960;2023-04-26T13:12:14;94742.31;;;13.56;61.61
23363;BME280;11853;48.080;11.960;2023-04-26T13:14:40;94725.34;;;13.49;62.13
23363;BME280;11853;48.080;11.960;2023-04-26T13:17:06;94730.00;;;13.55;63.18
23363;BME280;11853;48.080;11.960;2023-04-26T13:19:34;94722.25;;;13.37;61.50
23363;BME280;11853;48.080;11.960;2023-04-26T13:22:03;94722.72;;;13.41;63.70
23363;BME280;11853;48.080;11.960;2023-04-26T13:24:29;94722.72;;;13.41;63.26
23363;BME280;11853;48.080;11.960;2023-04-26T13:26:56;94722.06;;;13.39;61.61